sensor_id;sensor_type;location;lat;lon;timestamp;P1;durP1;ratioP1;P2;durP2;ratioP2
8885;SDS011;4479;51.162;13.906;2023-10-19T00:00:02;7.67;;;4.60;;
8885;SDS011;4479;51.162;13.906;2023-10-19T00:10:34;6.10;;;4.67;;
8885;SDS011;4479;51.162;13.906;2023-10-19T00:20:37;6.33;;;4.17;;
8885;SDS011;4479;51.162;13.906;2023-10-19T00:30:50;6.03;;;4.53;;
8885;SDS011;4479;51.162;13.906;2023-10-19T00:40:53;7.27;;;4.60;;
8885;SDS011;4479;51.162;13.906;2023-10-19T00:51:01;8.00;;;5.20;;
8885;SDS011;4479;51.162;13.906;2023-10-19T01:01:21;8.13;;;5.33;;
8885;SDS011;4479;51.162;13.906;2023-10-19T01:11:27;7.07;;;5.17;;
8885;SDS011;4479;51.162;13.906;2023-10-19T01:21:29;6.80;;;4.67;;
8885;SDS011;4479;51.162;13.906;2023-10-19T01:31:39;6.47;;;5.00;;
8885;SDS011;4479;51.162;13.906;2023-10-19T01:41:55;7.83;;;5.17;;
8885;SDS011;4479;51.162;13.906;2023-10-19T01:52:00;7.27;;;4.67;;
8885;SDS011;4479;51.162;13.906;2023-10-19T02:02:04;7.53;;;5.50;;
8885;SDS011;4479;51.162;13.906;2023-10-19T02:12:11;7.23;;;5.30;;
8885;SDS011;4479;51.162;13.906;2023-10-19T02:22:13;6.37;;;5.30;;
8885;SDS011;4479;51.162;13.906;2023-10-19T02:32:18;9.03;;;5.53;;
8885;SDS011;4479;51.162;13.906;2023-10-19T02:42:21;6.70;;;5.60;;
8885;SDS011;4479;51.162;13.906;2023-10-19T02:52:25;7.90;;;6.13;;
8885;SDS011;4479;51.162;13.906;2023-10-19T03:02:28;8.47;;;5.80;;
8885;SDS011;4479;51.162;13.906;2023-10-19T03:12:32;8.83;;;6.43;;
8885;SDS011;4479;51.162;13.906;2023-10-19T03:22:36;8.13;;;6.10;;
8885;SDS011;4479;51.162;13.906;2023-10-19T03:32:40;7.63;;;6.10;;
8885;SDS011;4479;51.162;13.906;2023-10-19T03:42:42;9.80;;;7.17;;
8885;SDS011;4479;51.162;13.906;2023-10-19T03:52:48;8.50;;;6.43;;
8885;SDS011;4479;51.162;13.906;2023-10-19T04:02:52;8.57;;;6.80;;
8885;SDS011;4479;51.162;13.906;2023-10-19T04:12:56;8.63;;;7.03;;
8885;SDS011;4479;51.162;13.906;2023-10-19T04:23:00;7.63;;;6.33;;
8885;SDS011;4479;51.162;13.906;2023-10-19T04:33:12;9.40;;;7.43;;
8885;SDS011;4479;51.162;13.906;2023-10-19T04:43:16;9.63;;;7.50;;
8885;SDS011;4479;51.162;13.906;2023-10-19T04:53:20;9.57;;;7.93;;
8885;SDS011;4479;51.162;13.906;2023-10-19T05:03:22;9.90;;;8.40;;
8885;SDS011;4479;51.162;13.906;2023-10-19T05:13:26;11.50;;;8.93;;
8885;SDS011;4479;51.162;13.906;2023-10-19T05:23:30;10.33;;;8.90;;
8885;SDS011;4479;51.162;13.906;2023-10-19T05:33:34;10.63;;;8.90;;
8885;SDS011;4479;51.162;13.906;2023-10-19T05:43:36;9.87;;;8.20;;
8885;SDS011;4479;51.162;13.906;2023-10-19T05:53:40;8.50;;;7.57;;
8885;SDS011;4479;51.162;13.906;2023-10-19T06:03:44;9.47;;;7.77;;
8885;SDS011;4479;51.162;13.906;2023-10-19T06:13:47;10.20;;;8.37;;
8885;SDS011;4479;51.162;13.906;2023-10-19T06:23:50;10.27;;;8.97;;
8885;SDS011;4479;51.162;13.906;2023-10-19T06:33:54;11.00;;;8.83;;
8885;SDS011;4479;51.162;13.906;2023-10-19T06:43:58;12.80;;;9.93;;
8885;SDS011;4479;51.162;13.906;2023-10-19T06:54:02;12.23;;;9.70;;
8885;SDS011;4479;51.162;13.906;2023-10-19T07:04:08;11.60;;;9.70;;
8885;SDS011;4479;51.162;13.906;2023-10-19T07:14:12;11.20;;;9.63;;
8885;SDS011;4479;51.162;13.906;2023-10-19T07:24:14;12.33;;;10.33;;
8885;SDS011;4479;51.162;13.906;2023-10-19T07:34:20;11.73;;;9.00;;
8885;SDS011;4479;51.162;13.906;2023-10-19T07:44:25;46.07;;;39.87;;
8885;SDS011;4479;51.162;13.906;2023-10-19T07:54:31;17.17;;;15.37;;
8885;SDS011;4479;51.162;13.906;2023-10-19T08:04:34;11.13;;;9.10;;
8885;SDS011;4479;51.162;13.906;2023-10-19T08:14:37;11.23;;;9.17;;
8885;SDS011;4479;51.162;13.906;2023-10-19T08:24:40;11.30;;;9.40;;
8885;SDS011;4479;51.162;13.906;2023-10-19T08:34:44;11.37;;;8.93;;
8885;SDS011;4479;51.162;13.906;2023-10-19T08:44:47;9.73;;;8.67;;
8885;SDS011;4479;51.162;13.906;2023-10-19T08:54:50;11.33;;;9.67;;
8885;SDS011;4479;51.162;13.906;2023-10-19T09:04:53;10.50;;;8.43;;
8885;SDS011;4479;51.162;13.906;2023-10-19T09:15:00;9.73;;;8.17;;
8885;SDS011;4479;51.162;13.906;2023-10-19T09:25:03;9.50;;;8.07;;
8885;SDS011;4479;51.162;13.906;2023-10-19T09:35:09;8.63;;;7.50;;
8885;SDS011;4479;51.162;13.906;2023-10-19T09:45:16;8.20;;;7.27;;
8885;SDS011;4479;51.162;13.906;2023-10-19T09:55:24;7.90;;;6.97;;
8885;SDS011;4479;51.162;13.906;2023-10-19T10:05:45;8.47;;;6.87;;
8885;SDS011;4479;51.162;13.906;2023-10-19T10:15:51;8.00;;;7.17;;
8885;SDS011;4479;51.162;13.906;2023-10-19T10:25:55;7.63;;;6.83;;
8885;SDS011;4479;51.162;13.906;2023-10-19T10:36:00;8.27;;;7.40;;
8885;SDS011;4479;51.162;13.906;2023-10-19T10:46:03;8.90;;;7.77;;
8885;SDS011;4479;51.162;13.906;2023-10-19T10:56:08;8.90;;;7.70;;
8885;SDS011;4479;51.162;13.906;2023-10-19T11:06:12;10.90;;;9.10;;
8885;SDS011;4479;51.162;13.906;2023-10-19T11:16:21;11.73;;;9.07;;
8885;SDS011;4479;51.162;13.906;2023-10-19T11:26:24;11.63;;;9.03;;
8885;SDS011;4479;51.162;13.906;2023-10-19T11:36:28;11.97;;;9.80;;
8885;SDS011;4479;51.162;13.906;2023-10-19T11:46:30;12.37;;;10.13;;
8885;SDS011;4479;51.162;13.906;2023-10-19T11:56:34;12.40;;;10.37;;
8885;SDS011;4479;51.162;13.906;2023-10-19T12:06:36;13.97;;;11.47;;
8885;SDS011;4479;51.162;13.906;2023-10-19T12:16:40;11.97;;;10.07;;
8885;SDS011;4479;51.162;13.906;2023-10-19T12:26:42;12.63;;;11.10;;
8885;SDS011;4479;51.162;13.906;2023-10-19T12:36:47;12.37;;;10.83;;
8885;SDS011;4479;51.162;13.906;2023-10-19T12:46:51;12.83;;;10.70;;
8885;SDS011;4479;51.162;13.906;2023-10-19T12:56:55;12.40;;;10.70;;
8885;SDS011;4479;51.162;13.906;2023-10-19T13:06:57;14.20;;;11.60;;
8885;SDS011;4479;51.162;13.906;2023-10-19T13:17:02;14.97;;;12.03;;
8885;SDS011;4479;51.162;13.906;2023-10-19T13:27:04;13.63;;;12.00;;
8885;SDS011;4479;51.162;13.906;2023-10-19T13:37:08;14.90;;;12.73;;
8885;SDS011;4479;51.162;13.906;2023-10-19T13:47:11;15.17;;;13.17;;
8885;SDS011;4479;51.162;13.906;2023-10-19T13:57:15;13.73;;;11.77;;
8885;SDS011;4479;51.162;13.906;2023-10-19T14:07:17;14.23;;;12.23;;
8885;SDS011;4479;51.162;13.906;2023-10-19T14:17:21;13.63;;;11.83;;
8885;SDS011;4479;51.162;13.906;2023-10-19T14:27:23;15.67;;;13.07;;
8885;SDS011;4479;51.162;13.906;2023-10-19T14:37:27;15.17;;;12.17;;
8885;SDS011;4479;51.162;13.906;2023-10-19T14:47:29;15.43;;;12.90;;
8885;SDS011;4479;51.162;13.906;2023-10-19T14:57:34;14.30;;;12.30;;
8885;SDS011;4479;51.162;13.906;2023-10-19T15:07:37;15.00;;;12.80;;
8885;SDS011;4479;51.162;13.906;2023-10-19T15:17:41;14.97;;;12.43;;
8885;SDS011;4479;51.162;13.906;2023-10-19T15:27:44;15.67;;;13.17;;
8885;SDS011;4479;51.162;13.906;2023-10-19T15:37:49;17.00;;;13.83;;
8885;SDS011;4479;51.162;13.906;2023-10-19T15:47:54;15.13;;;12.97;;
8885;SDS011;4479;51.162;13.906;2023-10-19T15:58:02;17.30;;;13.40;;
8885;SDS011;4479;51.162;13.906;2023-10-19T16:08:05;16.63;;;14.00;;
8885;SDS011;4479;51.162;13.906;2023-10-19T16:18:09;20.03;;;14.73;;
8885;SDS011;4479;51.162;13.906;2023-10-19T16:28:11;18.20;;;14.20;;
8885;SDS011;4479;51.162;13.906;2023-10-19T16:38:15;19.63;;;14.47;;
8885;SDS011;4479;51.162;13.906;2023-10-19T16:48:17;20.57;;;15.53;;
8885;SDS011;4479;51.162;13.906;2023-10-19T16:58:21;20.53;;;14.70;;
8885;SDS011;4479;51.162;13.906;2023-10-19T17:08:24;21.47;;;16.73;;
8885;SDS011;4479;51.162;13.906;2023-10-19T17:18:28;23.23;;;18.93;;
8885;SDS011;4479;51.162;13.906;2023-10-19T17:28:31;20.30;;;15.97;;
8885;SDS011;4479;51.162;13.906;2023-10-19T17:38:34;19.63;;;16.13;;
8885;SDS011;4479;51.162;13.906;2023-10-19T17:48:36;20.50;;;16.33;;
8885;SDS011;4479;51.162;13.906;2023-10-19T17:58:40;22.83;;;16.63;;
8885;SDS011;4479;51.162;13.906;2023-10-19T18:08:42;21.57;;;16.20;;
8885;SDS011;4479;51.162;13.906;2023-10-19T18:18:46;22.57;;;16.13;;
8885;SDS011;4479;51.162;13.906;2023-10-19T18:28:48;23.00;;;17.20;;
8885;SDS011;4479;51.162;13.906;2023-10-19T18:38:53;21.50;;;16.73;;
8885;SDS011;4479;51.162;13.906;2023-10-19T18:48:55;22.20;;;15.67;;
8885;SDS011;4479;51.162;13.906;2023-10-19T18:58:59;22.53;;;16.03;;
8885;SDS011;4479;51.162;13.906;2023-10-19T19:09:01;24.40;;;16.30;;
8885;SDS011;4479;51.162;13.906;2023-10-19T19:19:05;21.10;;;16.47;;
8885;SDS011;4479;51.162;13.906;2023-10-19T19:29:07;24.20;;;17.37;;
8885;SDS011;4479;51.162;13.906;2023-10-19T19:39:11;21.87;;;16.67;;
8885;SDS011;4479;51.162;13.906;2023-10-19T19:49:17;25.30;;;16.80;;
8885;SDS011;4479;51.162;13.906;2023-10-19T19:59:20;23.90;;;16.87;;
8885;SDS011;4479;51.162;13.906;2023-10-19T20:09:23;21.80;;;17.00;;
8885;SDS011;4479;51.162;13.906;2023-10-19T20:19:27;24.67;;;18.60;;
8885;SDS011;4479;51.162;13.906;2023-10-19T20:29:29;31.90;;;22.70;;
8885;SDS011;4479;51.162;13.906;2023-10-19T20:39:33;27.27;;;21.40;;
8885;SDS011;4479;51.162;13.906;2023-10-19T20:49:37;25.57;;;19.37;;
8885;SDS011;4479;51.162;13.906;2023-10-19T20:59:43;24.50;;;18.90;;
8885;SDS011;4479;51.162;13.906;2023-10-19T21:09:45;26.10;;;19.00;;
8885;SDS011;4479;51.162;13.906;2023-10-19T21:19:50;26.20;;;19.83;;
8885;SDS011;4479;51.162;13.906;2023-10-19T21:29:52;27.27;;;19.83;;
8885;SDS011;4479;51.162;13.906;2023-10-19T21:39:56;26.33;;;19.57;;
8885;SDS011;4479;51.162;13.906;2023-10-19T21:49:58;30.03;;;19.90;;
8885;SDS011;4479;51.162;13.906;2023-10-19T22:00:02;26.83;;;20.37;;
8885;SDS011;4479;51.162;13.906;2023-10-19T22:10:12;25.17;;;18.07;;
8885;SDS011;4479;51.162;13.906;2023-10-19T22:20:16;27.70;;;19.73;;
8885;SDS011;4479;51.162;13.906;2023-10-19T22:30:19;28.93;;;20.47;;
8885;SDS011;4479;51.162;13.906;2023-10-19T22:40:23;27.70;;;20.17;;
8885;SDS011;4479;51.162;13.906;2023-10-19T22:50:25;27.07;;;19.40;;
8885;SDS011;4479;51.162;13.906;2023-10-19T23:00:29;27.13;;;19.87;;
8885;SDS011;4479;51.162;13.906;2023-10-19T23:10:31;29.20;;;19.97;;
8885;SDS011;4479;51.162;13.906;2023-10-19T23:20:34;28.07;;;19.80;;
8885;SDS011;4479;51.162;13.906;2023-10-19T23:30:39;29.27;;;20.77;;
8885;SDS011;4479;51.162;13.906;2023-10-19T23:40:45;24.60;;;18.77;;
8885;SDS011;4479;51.162;13.906;2023-10-19T23:50:48;27.67;;;19.27;;
